createdAt,value
2018-12-13T00:01:52.888Z,99.90
2018-12-13T00:04:24.326Z,99.90
2018-12-13T00:06:55.778Z,99.90
2018-12-13T00:09:26.231Z,99.90
2018-12-13T00:11:58.393Z,99.90
2018-12-13T00:14:32.799Z,99.90
2018-12-13T00:17:04.963Z,99.90
2018-12-13T00:19:39.177Z,99.90
2018-12-13T00:22:11.038Z,99.90
2018-12-13T00:44:07.627Z,99.90
2018-12-13T00:46:36.134Z,99.90
2018-12-13T00:49:04.768Z,99.90
2018-12-13T00:54:26.231Z,99.90
2018-12-13T00:56:54.708Z,99.90
2018-12-13T00:59:23.232Z,99.90
2018-12-13T01:01:52.333Z,99.90
2018-12-13T01:04:20.996Z,99.90
2018-12-13T01:06:49.520Z,99.90
2018-12-13T01:09:18.072Z,99.90
2018-12-13T01:11:46.593Z,99.90
2018-12-13T01:14:17.531Z,99.90
2018-12-13T01:16:46.097Z,99.90
2018-12-13T01:19:14.706Z,99.90
2018-12-13T01:21:42.888Z,99.90
2018-12-13T01:24:11.048Z,99.90
2018-12-13T01:26:39.221Z,99.90
2018-12-13T01:29:07.456Z,99.90
2018-12-13T01:31:35.626Z,99.90
2018-12-13T01:34:03.865Z,99.90
2018-12-13T01:36:32.015Z,99.90
2018-12-13T01:39:00.144Z,99.90
2018-12-13T01:41:28.305Z,99.90
2018-12-13T01:43:56.460Z,99.90
2018-12-13T01:46:24.789Z,99.90
2018-12-13T01:48:53.239Z,99.90
2018-12-13T01:51:21.420Z,99.90
2018-12-13T01:53:49.552Z,99.90
2018-12-13T01:56:17.753Z,99.90
2018-12-13T01:58:46.012Z,99.90
2018-12-13T02:01:14.238Z,99.90
2018-12-13T02:03:42.380Z,99.90
2018-12-13T02:06:10.612Z,99.90
2018-12-13T02:08:38.740Z,99.90
2018-12-13T02:11:06.876Z,99.90
2018-12-13T02:13:35.029Z,99.90
2018-12-13T02:16:03.169Z,99.90
2018-12-13T02:18:31.286Z,99.90
2018-12-13T02:20:59.727Z,99.90
2018-12-13T02:23:27.881Z,99.90
2018-12-13T02:25:56.099Z,99.90
2018-12-13T02:28:24.250Z,99.90
2018-12-13T02:30:52.632Z,99.90
2018-12-13T02:33:20.812Z,99.90
2018-12-13T02:35:48.956Z,99.90
2018-12-13T02:38:17.133Z,99.90
2018-12-13T02:40:45.288Z,99.90
2018-12-13T02:43:13.453Z,99.90
2018-12-13T02:45:41.605Z,99.90
2018-12-13T02:48:09.746Z,99.90
2018-12-13T02:50:37.905Z,99.90
2018-12-13T02:53:06.050Z,99.90
2018-12-13T02:55:34.217Z,99.90
2018-12-13T02:58:02.368Z,99.90
2018-12-13T03:00:30.660Z,99.90
2018-12-13T03:02:58.890Z,99.90
2018-12-13T03:05:27.077Z,99.90
2018-12-13T03:07:55.232Z,99.90
2018-12-13T03:10:23.490Z,99.90
2018-12-13T03:12:51.756Z,99.90
2018-12-13T03:15:19.994Z,99.90
2018-12-13T03:17:48.216Z,99.90
2018-12-13T03:20:16.350Z,99.90
2018-12-13T03:22:44.533Z,99.90
2018-12-13T03:25:12.762Z,99.90
2018-12-13T03:27:40.917Z,99.90
2018-12-13T03:30:09.150Z,99.90
2018-12-13T03:32:37.298Z,99.90
2018-12-13T03:35:05.621Z,99.90
2018-12-13T03:37:33.794Z,99.90
2018-12-13T03:40:02.003Z,99.90
2018-12-13T03:42:30.190Z,99.90
2018-12-13T03:44:58.340Z,99.90
2018-12-13T03:47:26.585Z,99.90
2018-12-13T03:49:54.715Z,99.90
2018-12-13T03:52:22.862Z,99.90
2018-12-13T03:54:51.113Z,99.90
2018-12-13T03:57:19.279Z,99.90
2018-12-13T03:59:47.510Z,99.90
2018-12-13T04:02:15.669Z,99.90
2018-12-13T04:04:43.880Z,99.90
2018-12-13T04:07:12.080Z,99.90
2018-12-13T04:09:40.270Z,99.90
2018-12-13T04:12:08.440Z,99.90
2018-12-13T04:14:36.608Z,99.90
2018-12-13T04:17:04.820Z,99.90
2018-12-13T04:19:33.076Z,99.90
2018-12-13T04:22:01.743Z,99.90
2018-12-13T04:24:30.591Z,99.90
2018-12-13T04:26:58.744Z,99.90
2018-12-13T04:29:26.939Z,99.90
2018-12-13T04:31:55.118Z,99.90
2018-12-13T04:34:23.392Z,99.90
2018-12-13T04:36:51.570Z,99.90
2018-12-13T04:39:19.725Z,99.90
2018-12-13T04:41:48.003Z,99.90
2018-12-13T04:44:16.207Z,99.90
2018-12-13T04:46:44.568Z,99.90
2018-12-13T04:49:12.838Z,99.90
2018-12-13T04:51:41.122Z,99.90
2018-12-13T04:54:09.378Z,99.90
2018-12-13T04:56:37.608Z,99.90
2018-12-13T04:59:05.826Z,99.90
2018-12-13T05:01:34.138Z,99.90
2018-12-13T05:04:02.408Z,99.90
2018-12-13T05:06:30.641Z,99.90
2018-12-13T05:08:58.824Z,99.90
2018-12-13T05:11:27.011Z,99.90
2018-12-13T05:13:55.176Z,99.90
2018-12-13T05:16:23.367Z,99.90
2018-12-13T05:18:51.641Z,99.90
2018-12-13T05:21:19.904Z,99.90
2018-12-13T05:23:48.081Z,99.90
2018-12-13T05:26:16.291Z,99.90
2018-12-13T05:28:44.584Z,99.90
2018-12-13T05:31:12.812Z,99.90
2018-12-13T05:33:41.024Z,99.90
2018-12-13T05:36:09.183Z,99.90
2018-12-13T05:38:37.341Z,99.90
2018-12-13T05:41:05.624Z,99.90
2018-12-13T05:43:33.837Z,99.90
2018-12-13T05:46:02.025Z,99.90
2018-12-13T05:48:30.232Z,99.90
2018-12-13T05:50:58.429Z,99.90
2018-12-13T05:53:26.774Z,99.90
2018-12-13T05:55:55.039Z,99.90
2018-12-13T05:58:23.207Z,99.90
2018-12-13T06:00:51.374Z,99.90
2018-12-13T06:03:19.555Z,99.90
2018-12-13T06:05:47.731Z,99.90
2018-12-13T06:08:15.925Z,99.90
2018-12-13T06:10:44.223Z,99.90
2018-12-13T06:13:12.398Z,99.90
2018-12-13T06:15:40.567Z,99.90
2018-12-13T06:18:08.758Z,99.90
2018-12-13T06:20:36.933Z,99.90
2018-12-13T06:23:05.288Z,99.90
2018-12-13T06:25:33.525Z,99.90
2018-12-13T06:28:01.683Z,99.90
2018-12-13T06:30:30.062Z,99.90
2018-12-13T06:32:58.240Z,99.90
2018-12-13T06:35:26.443Z,99.90
2018-12-13T06:38:01.057Z,99.90
2018-12-13T06:40:24.803Z,99.90
2018-12-13T06:42:52.967Z,99.90
2018-12-13T06:45:21.210Z,99.90
2018-12-13T06:47:49.452Z,99.90
2018-12-13T06:50:17.685Z,99.90
2018-12-13T06:52:45.932Z,99.90
2018-12-13T06:55:14.195Z,99.90
2018-12-13T06:57:42.377Z,99.90
2018-12-13T07:00:10.607Z,99.90
2018-12-13T07:02:38.814Z,99.90
2018-12-13T07:05:07.167Z,99.90
2018-12-13T07:07:35.329Z,99.90
2018-12-13T07:10:03.848Z,99.90
2018-12-13T07:12:32.143Z,99.90
2018-12-13T07:15:00.452Z,99.90
2018-12-13T07:17:28.655Z,99.90
2018-12-13T07:19:56.943Z,99.90
2018-12-13T07:22:25.124Z,99.90
2018-12-13T07:24:54.468Z,99.90
2018-12-13T07:27:22.633Z,99.90
2018-12-13T07:29:50.788Z,99.90
2018-12-13T07:32:18.955Z,99.90
2018-12-13T07:34:47.279Z,99.90
2018-12-13T07:37:15.494Z,99.90
2018-12-13T07:39:43.640Z,99.90
2018-12-13T07:42:11.776Z,99.90
2018-12-13T07:44:40.015Z,99.90
2018-12-13T07:47:08.247Z,99.90
2018-12-13T07:49:36.388Z,99.90
2018-12-13T07:52:04.720Z,99.90
2018-12-13T07:54:32.885Z,99.90
2018-12-13T07:57:01.100Z,99.90
2018-12-13T07:59:29.272Z,99.90
2018-12-13T08:01:57.496Z,99.90
2018-12-13T08:04:25.640Z,99.90
2018-12-13T08:06:53.884Z,99.90
2018-12-13T08:09:22.058Z,99.90
2018-12-13T08:11:50.269Z,99.90
2018-12-13T08:14:18.474Z,99.90
2018-12-13T08:16:46.789Z,99.90
2018-12-13T08:19:15.042Z,99.90
2018-12-13T08:21:43.248Z,99.90
2018-12-13T08:24:11.411Z,99.90
2018-12-13T08:26:39.648Z,99.90
2018-12-13T08:29:07.811Z,99.90
2018-12-13T08:31:35.953Z,99.90
2018-12-13T08:34:04.210Z,99.90
2018-12-13T08:36:32.453Z,99.90
2018-12-13T08:39:00.676Z,99.90
2018-12-13T08:41:28.853Z,99.90
2018-12-13T08:43:57.024Z,99.90
2018-12-13T08:46:25.304Z,99.90
2018-12-13T08:48:53.473Z,99.90
2018-12-13T08:51:21.699Z,99.90
2018-12-13T08:53:49.947Z,99.90
2018-12-13T08:56:18.116Z,99.90
2018-12-13T08:58:46.248Z,99.90
2018-12-13T09:01:14.408Z,99.90
2018-12-13T09:03:42.584Z,99.90
2018-12-13T09:06:10.766Z,99.90
2018-12-13T09:08:38.934Z,99.90
2018-12-13T09:11:07.083Z,99.90
2018-12-13T09:13:35.233Z,99.90
2018-12-13T09:18:38.019Z,99.90
2018-12-13T09:21:06.332Z,99.90
2018-12-13T09:23:34.483Z,99.90
2018-12-13T09:26:02.733Z,99.90
2018-12-13T09:28:30.900Z,99.90
2018-12-13T09:30:59.048Z,99.90
2018-12-13T09:33:27.210Z,99.90
2018-12-13T09:35:55.460Z,99.90
2018-12-13T09:38:23.604Z,99.90
2018-12-13T09:40:51.765Z,99.90
2018-12-13T09:43:19.946Z,99.90
2018-12-13T09:45:48.072Z,99.90
2018-12-13T09:48:16.246Z,99.90
2018-12-13T09:50:44.480Z,99.90
2018-12-13T09:53:12.636Z,99.90
2018-12-13T09:55:40.809Z,99.90
2018-12-13T09:58:08.997Z,99.90
2018-12-13T10:00:37.248Z,99.90
2018-12-13T10:03:05.436Z,99.90
2018-12-13T10:05:33.599Z,99.90
2018-12-13T10:08:01.775Z,99.90
2018-12-13T10:10:30.059Z,99.90
2018-12-13T10:12:58.242Z,99.90
2018-12-13T10:15:31.995Z,99.90
2018-12-13T10:17:56.564Z,99.90
2018-12-13T10:20:24.723Z,99.90
2018-12-13T10:22:52.900Z,99.90
2018-12-13T10:25:21.152Z,99.90
2018-12-13T10:27:49.375Z,99.90
2018-12-13T10:30:17.616Z,99.90
2018-12-13T10:32:45.798Z,99.90
2018-12-13T10:35:14.100Z,99.90
2018-12-13T10:37:42.339Z,99.90
2018-12-13T10:40:10.611Z,99.90
2018-12-13T10:42:38.834Z,99.90
2018-12-13T10:45:07.145Z,99.90
2018-12-13T10:47:35.306Z,99.90
2018-12-13T10:50:03.741Z,99.90
2018-12-13T10:52:32.003Z,99.90
2018-12-13T10:55:00.240Z,99.90
2018-12-13T10:57:28.419Z,99.90
2018-12-13T10:59:56.547Z,99.90
2018-12-13T11:02:32.095Z,99.90
2018-12-13T11:05:00.543Z,99.90
2018-12-13T11:07:28.710Z,99.90
2018-12-13T11:09:56.939Z,99.90
2018-12-13T11:12:25.117Z,99.90
2018-12-13T11:14:53.340Z,99.90
2018-12-13T11:17:21.551Z,99.90
2018-12-13T11:19:49.720Z,99.90
2018-12-13T11:22:17.980Z,99.90
2018-12-13T11:24:46.140Z,99.90
2018-12-13T11:27:25.651Z,99.90
2018-12-13T11:30:10.143Z,99.90
2018-12-13T11:32:38.303Z,99.90
2018-12-13T11:35:06.441Z,99.90
2018-12-13T11:37:34.578Z,99.90
2018-12-13T11:40:02.728Z,99.90
2018-12-13T11:42:30.908Z,99.90
2018-12-13T11:44:59.051Z,99.90
2018-12-13T11:47:27.236Z,99.90
2018-12-13T11:49:55.383Z,99.90
2018-12-13T11:52:23.521Z,99.90
2018-12-13T11:54:51.808Z,99.90
2018-12-13T11:57:20.070Z,99.90
2018-12-13T11:59:48.211Z,99.90
2018-12-13T12:02:16.372Z,99.90
2018-12-13T12:04:54.874Z,99.90
2018-12-13T12:07:24.491Z,99.90
2018-12-13T12:12:46.601Z,99.90
2018-12-13T12:15:14.824Z,99.90
2018-12-13T12:17:43.476Z,99.90
2018-12-13T12:20:11.983Z,99.90
2018-12-13T12:22:42.149Z,99.90
2018-12-13T12:25:10.329Z,99.90
2018-12-13T12:27:38.503Z,99.90
2018-12-13T12:30:06.930Z,99.90
2018-12-13T12:32:35.208Z,99.90
2018-12-13T12:35:03.693Z,99.90
2018-12-13T12:37:31.900Z,99.90
2018-12-13T12:40:00.090Z,99.90
2018-12-13T12:42:28.359Z,99.90
2018-12-13T12:44:56.603Z,99.90
2018-12-13T12:47:26.046Z,99.90
2018-12-13T12:49:54.269Z,99.90
2018-12-13T12:52:22.528Z,99.90
2018-12-13T12:54:50.699Z,99.90
2018-12-13T12:57:18.877Z,99.90
2018-12-13T12:59:47.057Z,99.90
2018-12-13T13:02:15.246Z,99.90
2018-12-13T13:04:43.520Z,99.90
2018-12-13T13:07:11.745Z,99.90
2018-12-13T13:09:39.916Z,99.90
2018-12-13T13:12:08.079Z,99.90
2018-12-13T13:14:36.262Z,99.90
2018-12-13T13:17:04.580Z,99.90
2018-12-13T13:19:33.121Z,99.90
2018-12-13T13:22:01.348Z,99.90
2018-12-13T13:24:29.572Z,99.90
2018-12-13T13:26:57.907Z,99.90
2018-12-13T13:29:26.118Z,99.90
2018-12-13T13:31:54.544Z,99.90
2018-12-13T13:34:22.731Z,99.90
2018-12-13T13:36:51.011Z,99.90
2018-12-13T13:39:19.183Z,99.90
2018-12-13T13:41:47.403Z,99.90
2018-12-13T13:44:15.771Z,99.90
2018-12-13T13:46:44.000Z,99.90
2018-12-13T13:49:12.177Z,99.90
2018-12-13T13:51:40.319Z,99.90
2018-12-13T13:54:08.480Z,99.90
2018-12-13T13:56:36.633Z,99.90
2018-12-13T13:59:04.878Z,99.90
2018-12-13T14:01:38.570Z,99.90
2018-12-13T14:04:06.868Z,99.90
2018-12-13T14:06:39.360Z,99.90
2018-12-13T14:09:07.785Z,99.90
2018-12-13T14:11:35.960Z,99.90
2018-12-13T14:14:04.499Z,99.90
2018-12-13T14:16:32.647Z,99.90
2018-12-13T14:19:00.860Z,99.90
2018-12-13T14:21:29.040Z,99.90
2018-12-13T14:23:57.264Z,99.90
2018-12-13T14:26:25.616Z,99.90
2018-12-13T14:28:53.929Z,99.90
2018-12-13T14:31:22.099Z,99.90
2018-12-13T14:33:50.316Z,99.90
2018-12-13T14:36:18.465Z,99.90
2018-12-13T14:38:46.647Z,99.90
2018-12-13T14:41:16.763Z,99.90
2018-12-13T14:43:44.970Z,99.90
2018-12-13T14:46:21.350Z,99.90
2018-12-13T14:48:49.486Z,99.90
2018-12-13T14:51:17.739Z,99.90
2018-12-13T14:53:45.887Z,99.90
2018-12-13T14:56:14.060Z,99.90
2018-12-13T14:58:42.940Z,99.90
2018-12-13T15:01:11.153Z,99.90
2018-12-13T15:03:39.303Z,99.90
2018-12-13T15:06:07.532Z,99.90
2018-12-13T15:08:35.748Z,99.90
2018-12-13T15:11:04.084Z,99.90
2018-12-13T15:13:32.264Z,99.90
2018-12-13T15:16:00.474Z,99.90
2018-12-13T15:18:28.623Z,99.90
2018-12-13T15:20:56.855Z,99.90
2018-12-13T15:23:25.012Z,99.90
2018-12-13T15:25:53.176Z,99.90
2018-12-13T15:28:21.361Z,99.90
2018-12-13T15:30:49.528Z,99.90
2018-12-13T15:33:17.713Z,99.90
2018-12-13T15:35:45.873Z,99.90
2018-12-13T15:38:14.069Z,99.90
2018-12-13T15:40:42.245Z,99.90
2018-12-13T15:43:10.495Z,99.90
2018-12-13T15:45:39.016Z,99.90
2018-12-13T15:48:07.195Z,99.90
2018-12-13T15:50:35.437Z,99.90
2018-12-13T15:53:03.688Z,99.90
2018-12-13T15:55:31.947Z,99.90
2018-12-13T15:58:00.214Z,99.90
2018-12-13T16:00:28.457Z,99.90
2018-12-13T16:02:56.602Z,99.90
2018-12-13T16:05:24.766Z,99.90
2018-12-13T16:07:52.915Z,99.90
2018-12-13T16:10:21.067Z,99.90
2018-12-13T16:12:49.239Z,99.90
2018-12-13T16:15:17.500Z,99.90
2018-12-13T16:17:45.696Z,99.90
2018-12-13T16:20:13.861Z,99.90
2018-12-13T16:22:42.031Z,99.90
2018-12-13T16:25:10.284Z,99.90
2018-12-13T16:27:38.555Z,99.90
2018-12-13T16:30:07.583Z,99.90
2018-12-13T16:32:35.780Z,99.90
2018-12-13T16:35:04.169Z,99.90
2018-12-13T16:37:32.412Z,99.90
2018-12-13T16:40:00.623Z,99.90
2018-12-13T16:42:28.783Z,99.90
2018-12-13T16:44:56.977Z,99.90
2018-12-13T16:47:25.139Z,99.90
2018-12-13T16:49:53.346Z,99.90
2018-12-13T16:52:21.527Z,99.90
2018-12-13T16:54:49.727Z,99.90
2018-12-13T16:57:18.003Z,99.90
2018-12-13T16:59:46.194Z,99.90
2018-12-13T17:02:14.384Z,99.90
2018-12-13T17:04:42.577Z,99.90
2018-12-13T17:07:10.765Z,99.90
2018-12-13T17:09:38.931Z,99.90
2018-12-13T17:12:07.144Z,99.90
2018-12-13T17:14:35.304Z,99.90
2018-12-13T17:17:03.659Z,99.90
2018-12-13T17:19:31.856Z,99.90
2018-12-13T17:22:00.621Z,99.90
2018-12-13T17:24:28.841Z,99.90
2018-12-13T17:26:57.199Z,99.90
2018-12-13T17:29:25.387Z,99.90
2018-12-13T17:31:53.621Z,99.90
2018-12-13T17:34:21.824Z,99.90
2018-12-13T17:36:50.059Z,99.90
2018-12-13T17:39:18.264Z,99.90
2018-12-13T17:41:46.441Z,99.90
2018-12-13T17:44:14.684Z,99.90
2018-12-13T17:46:42.850Z,99.90
2018-12-13T17:49:10.999Z,99.90
2018-12-13T17:51:39.206Z,99.90
2018-12-13T17:54:07.353Z,99.90
2018-12-13T17:56:35.543Z,99.90
2018-12-13T17:59:03.781Z,99.90
2018-12-13T18:01:32.020Z,99.90
2018-12-13T18:04:00.178Z,99.90
2018-12-13T18:06:28.406Z,99.90
2018-12-13T18:08:56.565Z,99.90
2018-12-13T18:11:24.728Z,99.90
2018-12-13T18:13:52.967Z,99.90
2018-12-13T18:16:21.119Z,99.90
2018-12-13T18:18:49.348Z,99.90
2018-12-13T18:21:17.658Z,99.90
2018-12-13T18:23:47.444Z,99.90
2018-12-13T18:26:24.524Z,99.90
2018-12-13T18:28:52.887Z,99.90
2018-12-13T18:31:21.306Z,99.90
2018-12-13T18:33:49.676Z,99.90
2018-12-13T18:36:17.905Z,99.90
2018-12-13T18:38:46.066Z,99.90
2018-12-13T18:41:14.652Z,99.90
2018-12-13T18:43:49.420Z,99.90
2018-12-13T18:46:25.452Z,99.90
2018-12-13T18:48:53.749Z,99.90
2018-12-13T18:51:28.353Z,99.90
2018-12-13T18:53:56.712Z,99.90
2018-12-13T18:56:24.948Z,99.90
2018-12-13T18:58:53.132Z,99.90
2018-12-13T19:01:21.425Z,99.90
2018-12-13T19:03:49.656Z,99.90
2018-12-13T19:06:17.840Z,99.90
2018-12-13T19:08:46.021Z,99.90
2018-12-13T19:11:14.277Z,99.90
2018-12-13T19:13:42.444Z,99.90
2018-12-13T19:16:10.614Z,99.90
2018-12-13T19:18:38.795Z,99.90
2018-12-13T19:21:07.046Z,99.90
2018-12-13T19:23:35.347Z,99.90
2018-12-13T19:26:13.415Z,99.90
2018-12-13T19:28:41.790Z,99.80
2018-12-13T19:31:10.509Z,99.80
2018-12-13T19:33:38.752Z,99.80
2018-12-13T19:36:07.109Z,99.80
2018-12-13T19:38:35.484Z,99.60
2018-12-13T19:41:03.810Z,99.40
2018-12-13T19:43:32.210Z,99.20
2018-12-13T19:46:00.628Z,99.30
2018-12-13T19:48:29.091Z,99.40
2018-12-13T19:50:58.000Z,99.30
2018-12-13T19:53:27.061Z,99.10
2018-12-13T19:55:55.249Z,99.00
2018-12-13T19:58:23.409Z,99.20
2018-12-13T20:00:51.576Z,98.90
2018-12-13T20:03:20.044Z,98.90
2018-12-13T20:05:48.379Z,98.40
2018-12-13T20:08:16.817Z,98.50
2018-12-13T20:10:45.059Z,98.00
2018-12-13T20:13:13.220Z,98.30
2018-12-13T20:15:41.416Z,98.70
2018-12-13T20:18:09.600Z,98.70
2018-12-13T20:20:37.834Z,98.20
2018-12-13T20:23:06.155Z,98.50
2018-12-13T20:25:34.321Z,98.10
2018-12-13T20:28:02.496Z,98.30
2018-12-13T20:30:30.816Z,98.50
2018-12-13T20:32:59.092Z,98.20
2018-12-13T20:35:27.504Z,98.10
2018-12-13T20:37:55.697Z,98.00
2018-12-13T20:40:23.879Z,98.20
2018-12-13T20:42:52.211Z,97.90
2018-12-13T20:45:20.363Z,98.20
2018-12-13T20:47:48.639Z,98.20
2018-12-13T20:50:16.940Z,97.80
2018-12-13T20:52:45.171Z,98.10
2018-12-13T20:55:13.387Z,98.00
2018-12-13T20:57:41.596Z,98.30
2018-12-13T21:00:11.613Z,98.00
2018-12-13T21:02:39.811Z,98.00
2018-12-13T21:05:08.145Z,98.20
2018-12-13T21:07:36.399Z,98.40
2018-12-13T21:10:08.512Z,98.20
2018-12-13T21:12:36.893Z,98.10
2018-12-13T21:15:06.864Z,98.30
2018-12-13T21:17:35.068Z,98.50
2018-12-13T21:20:03.636Z,98.10
2018-12-13T21:22:31.989Z,98.00
2018-12-13T21:25:00.232Z,98.00
2018-12-13T21:27:28.567Z,97.80
2018-12-13T21:29:56.723Z,98.20
2018-12-13T21:32:24.964Z,98.20
2018-12-13T21:34:53.189Z,98.30
2018-12-13T21:37:21.409Z,98.20
2018-12-13T21:39:49.612Z,98.10
2018-12-13T21:42:17.804Z,98.20
2018-12-13T21:44:46.008Z,98.30
2018-12-13T21:47:14.203Z,98.30
2018-12-13T21:49:42.517Z,98.40
2018-12-13T21:52:10.857Z,98.50
2018-12-13T21:54:39.325Z,97.50
2018-12-13T21:57:08.253Z,97.40
2018-12-13T21:59:36.478Z,98.10
2018-12-13T22:02:04.910Z,97.80
2018-12-13T22:04:33.139Z,97.80
2018-12-13T22:07:01.469Z,97.80
2018-12-13T22:09:29.733Z,98.40
2018-12-13T22:11:58.072Z,98.10
2018-12-13T22:14:26.343Z,98.00
2018-12-13T22:16:56.281Z,98.40
2018-12-13T22:19:24.567Z,98.30
2018-12-13T22:21:52.803Z,98.10
2018-12-13T22:24:21.474Z,98.20
2018-12-13T22:26:49.708Z,98.10
2018-12-13T22:29:17.904Z,98.10
2018-12-13T22:31:46.967Z,97.90
2018-12-13T22:34:15.398Z,97.90
2018-12-13T22:36:43.877Z,98.00
2018-12-13T22:39:12.180Z,98.10
2018-12-13T22:41:40.412Z,98.10
2018-12-13T22:44:10.351Z,97.90
2018-12-13T22:46:38.548Z,98.20
2018-12-13T22:49:06.903Z,98.10
2018-12-13T22:51:35.184Z,98.00
2018-12-13T22:54:03.499Z,98.20
2018-12-13T22:56:31.724Z,98.20
2018-12-13T22:58:59.901Z,98.00
2018-12-13T23:01:28.332Z,98.00
2018-12-13T23:03:56.502Z,98.20
2018-12-13T23:06:24.621Z,98.10
2018-12-13T23:08:52.861Z,99.50
2018-12-13T23:11:21.115Z,99.00
2018-12-13T23:13:49.296Z,99.50
2018-12-13T23:16:17.420Z,98.70
2018-12-13T23:18:45.661Z,98.60
2018-12-13T23:21:13.824Z,98.10
2018-12-13T23:23:42.124Z,98.40
2018-12-13T23:26:10.253Z,98.10
2018-12-13T23:28:38.375Z,98.10
2018-12-13T23:31:06.634Z,98.20
2018-12-13T23:33:34.797Z,98.40
2018-12-13T23:36:02.974Z,98.10
2018-12-13T23:38:31.168Z,98.00
2018-12-13T23:40:59.503Z,98.20
2018-12-13T23:43:27.652Z,98.00
2018-12-13T23:45:55.796Z,98.30
2018-12-13T23:48:23.960Z,98.60
2018-12-13T23:50:52.192Z,98.90
2018-12-13T23:53:20.328Z,99.00
2018-12-13T23:55:48.469Z,99.10
2018-12-13T23:58:16.636Z,99.40
